sensor_id;sensor_type;location;lat;lon;timestamp;P1;durP1;ratioP1;P2;durP2;ratioP2
31238;SDS011;17871;31.584;74.450;2023-05-07T00:00:49;4.40;;;2.13;;
31238;SDS011;17871;31.584;74.450;2023-05-07T00:03:19;8.00;;;2.05;;
31238;SDS011;17871;31.584;74.450;2023-05-07T00:05:48;5.70;;;2.28;;
31238;SDS011;17871;31.584;74.450;2023-05-07T00:08:17;6.20;;;1.90;;
31238;SDS011;17871;31.584;74.450;2023-05-07T00:10:47;6.53;;;2.17;;
31238;SDS011;17871;31.584;74.450;2023-05-07T00:13:16;2.85;;;1.75;;
31238;SDS011;17871;31.584;74.450;2023-05-07T00:15:45;4.57;;;1.83;;
31238;SDS011;17871;31.584;74.450;2023-05-07T00:18:14;4.68;;;1.70;;
31238;SDS011;17871;31.584;74.450;2023-05-07T00:20:43;6.50;;;2.13;;
31238;SDS011;17871;31.584;74.450;2023-05-07T00:23:12;13.98;;;3.28;;
31238;SDS011;17871;31.584;74.450;2023-05-07T00:25:41;8.27;;;2.08;;
31238;SDS011;17871;31.584;74.450;2023-05-07T00:28:10;5.38;;;2.20;;
31238;SDS011;17871;31.584;74.450;2023-05-07T00:30:39;8.88;;;2.63;;
31238;SDS011;17871;31.584;74.450;2023-05-07T00:33:08;5.60;;;2.17;;
31238;SDS011;17871;31.584;74.450;2023-05-07T00:35:37;9.75;;;2.88;;
31238;SDS011;17871;31.584;74.450;2023-05-07T00:38:06;4.70;;;2.40;;
31238;SDS011;17871;31.584;74.450;2023-05-07T00:40:36;7.35;;;1.80;;
31238;SDS011;17871;31.584;74.450;2023-05-07T00:43:05;4.90;;;2.05;;
31238;SDS011;17871;31.584;74.450;2023-05-07T00:45:34;8.82;;;2.42;;
31238;SDS011;17871;31.584;74.450;2023-05-07T00:48:04;6.88;;;2.58;;
31238;SDS011;17871;31.584;74.450;2023-05-07T00:50:33;6.50;;;2.78;;
31238;SDS011;17871;31.584;74.450;2023-05-07T00:53:02;4.00;;;2.08;;
31238;SDS011;17871;31.584;74.450;2023-05-07T00:55:32;3.90;;;1.70;;
31238;SDS011;17871;31.584;74.450;2023-05-07T00:58:02;5.45;;;1.92;;
31238;SDS011;17871;31.584;74.450;2023-05-07T01:00:32;6.80;;;1.70;;
31238;SDS011;17871;31.584;74.450;2023-05-07T01:03:01;4.47;;;2.05;;
31238;SDS011;17871;31.584;74.450;2023-05-07T01:05:31;14.25;;;2.40;;
31238;SDS011;17871;31.584;74.450;2023-05-07T01:08:01;4.38;;;1.75;;
31238;SDS011;17871;31.584;74.450;2023-05-07T01:10:33;6.20;;;1.77;;
31238;SDS011;17871;31.584;74.450;2023-05-07T01:13:02;5.55;;;2.28;;
31238;SDS011;17871;31.584;74.450;2023-05-07T01:15:32;4.85;;;1.88;;
31238;SDS011;17871;31.584;74.450;2023-05-07T01:18:01;1.70;;;0.95;;
31238;SDS011;17871;31.584;74.450;2023-05-07T01:20:34;1.20;;;0.77;;
31238;SDS011;17871;31.584;74.450;2023-05-07T01:23:03;3.78;;;0.95;;
31238;SDS011;17871;31.584;74.450;2023-05-07T01:25:35;1.90;;;0.88;;
31238;SDS011;17871;31.584;74.450;2023-05-07T01:28:04;3.53;;;0.75;;
31238;SDS011;17871;31.584;74.450;2023-05-07T01:30:36;3.90;;;0.80;;
31238;SDS011;17871;31.584;74.450;2023-05-07T01:33:10;3.72;;;1.70;;
31238;SDS011;17871;31.584;74.450;2023-05-07T01:35:43;7.85;;;3.60;;
31238;SDS011;17871;31.584;74.450;2023-05-07T01:38:16;11.73;;;3.72;;
31238;SDS011;17871;31.584;74.450;2023-05-07T01:40:46;8.30;;;3.42;;
31238;SDS011;17871;31.584;74.450;2023-05-07T01:43:16;2.83;;;1.55;;
31238;SDS011;17871;31.584;74.450;2023-05-07T01:45:46;4.30;;;1.27;;
31238;SDS011;17871;31.584;74.450;2023-05-07T01:48:17;6.90;;;1.05;;
31238;SDS011;17871;31.584;74.450;2023-05-07T01:50:47;3.90;;;1.20;;
31238;SDS011;17871;31.584;74.450;2023-05-07T01:53:16;4.60;;;0.90;;
31238;SDS011;17871;31.584;74.450;2023-05-07T01:55:45;5.97;;;1.52;;
31238;SDS011;17871;31.584;74.450;2023-05-07T01:58:15;5.95;;;1.20;;
31238;SDS011;17871;31.584;74.450;2023-05-07T02:00:45;2.83;;;1.38;;
31238;SDS011;17871;31.584;74.450;2023-05-07T02:03:14;1.90;;;0.80;;
31238;SDS011;17871;31.584;74.450;2023-05-07T02:05:51;9.82;;;1.45;;
31238;SDS011;17871;31.584;74.450;2023-05-07T02:08:36;7.53;;;1.00;;
31238;SDS011;17871;31.584;74.450;2023-05-07T02:11:11;4.50;;;1.38;;
31238;SDS011;17871;31.584;74.450;2023-05-07T02:13:41;2.95;;;2.25;;
31238;SDS011;17871;31.584;74.450;2023-05-07T02:16:10;6.40;;;1.85;;
31238;SDS011;17871;31.584;74.450;2023-05-07T02:18:39;7.43;;;2.40;;
31238;SDS011;17871;31.584;74.450;2023-05-07T02:21:08;3.63;;;2.30;;
31238;SDS011;17871;31.584;74.450;2023-05-07T02:23:37;7.10;;;1.67;;
31238;SDS011;17871;31.584;74.450;2023-05-07T02:26:07;6.65;;;1.90;;
31238;SDS011;17871;31.584;74.450;2023-05-07T02:28:37;10.27;;;2.35;;
31238;SDS011;17871;31.584;74.450;2023-05-07T02:31:06;9.80;;;2.67;;
31238;SDS011;17871;31.584;74.450;2023-05-07T02:33:35;10.52;;;2.10;;
31238;SDS011;17871;31.584;74.450;2023-05-07T02:36:10;9.02;;;1.98;;
31238;SDS011;17871;31.584;74.450;2023-05-07T02:38:50;16.20;;;2.50;;
31238;SDS011;17871;31.584;74.450;2023-05-07T02:41:19;6.32;;;2.03;;
31238;SDS011;17871;31.584;74.450;2023-05-07T02:43:48;5.22;;;1.83;;
31238;SDS011;17871;31.584;74.450;2023-05-07T02:46:18;5.78;;;1.98;;
31238;SDS011;17871;31.584;74.450;2023-05-07T02:48:56;5.38;;;2.20;;
31238;SDS011;17871;31.584;74.450;2023-05-07T02:51:25;6.20;;;2.03;;
31238;SDS011;17871;31.584;74.450;2023-05-07T02:53:57;8.93;;;2.75;;
31238;SDS011;17871;31.584;74.450;2023-05-07T02:56:28;8.52;;;2.42;;
31238;SDS011;17871;31.584;74.450;2023-05-07T02:58:57;11.10;;;2.75;;
31238;SDS011;17871;31.584;74.450;2023-05-07T03:01:30;6.32;;;2.63;;
31238;SDS011;17871;31.584;74.450;2023-05-07T03:04:05;8.45;;;2.35;;
31238;SDS011;17871;31.584;74.450;2023-05-07T03:06:34;7.82;;;2.38;;
31238;SDS011;17871;31.584;74.450;2023-05-07T03:09:03;11.80;;;2.50;;
31238;SDS011;17871;31.584;74.450;2023-05-07T03:11:33;9.27;;;3.75;;
31238;SDS011;17871;31.584;74.450;2023-05-07T03:14:02;6.60;;;2.63;;
31238;SDS011;17871;31.584;74.450;2023-05-07T03:16:31;8.85;;;2.70;;
31238;SDS011;17871;31.584;74.450;2023-05-07T03:19:00;7.45;;;2.70;;
31238;SDS011;17871;31.584;74.450;2023-05-07T03:21:30;4.53;;;2.40;;
31238;SDS011;17871;31.584;74.450;2023-05-07T03:24:01;4.37;;;1.87;;
31238;SDS011;17871;31.584;74.450;2023-05-07T03:26:30;5.57;;;1.55;;
31238;SDS011;17871;31.584;74.450;2023-05-07T03:29:00;5.78;;;1.90;;
31238;SDS011;17871;31.584;74.450;2023-05-07T03:31:29;2.75;;;1.80;;
31238;SDS011;17871;31.584;74.450;2023-05-07T03:34:00;7.15;;;2.63;;
31238;SDS011;17871;31.584;74.450;2023-05-07T03:36:29;6.72;;;2.30;;
31238;SDS011;17871;31.584;74.450;2023-05-07T03:38:59;9.35;;;2.70;;
31238;SDS011;17871;31.584;74.450;2023-05-07T03:41:35;11.23;;;2.58;;
31238;SDS011;17871;31.584;74.450;2023-05-07T03:44:04;5.63;;;2.15;;
31238;SDS011;17871;31.584;74.450;2023-05-07T03:46:34;6.15;;;2.42;;
31238;SDS011;17871;31.584;74.450;2023-05-07T03:49:03;7.05;;;1.98;;
31238;SDS011;17871;31.584;74.450;2023-05-07T03:51:32;4.00;;;1.52;;
31238;SDS011;17871;31.584;74.450;2023-05-07T03:54:03;5.47;;;1.77;;
31238;SDS011;17871;31.584;74.450;2023-05-07T03:56:33;3.67;;;1.67;;
31238;SDS011;17871;31.584;74.450;2023-05-07T03:59:02;9.88;;;1.77;;
31238;SDS011;17871;31.584;74.450;2023-05-07T04:01:31;10.02;;;1.50;;
31238;SDS011;17871;31.584;74.450;2023-05-07T04:04:00;3.70;;;1.92;;
31238;SDS011;17871;31.584;74.450;2023-05-07T04:06:32;4.63;;;1.70;;
31238;SDS011;17871;31.584;74.450;2023-05-07T04:09:01;12.73;;;3.45;;
31238;SDS011;17871;31.584;74.450;2023-05-07T04:11:31;9.10;;;1.92;;
31238;SDS011;17871;31.584;74.450;2023-05-07T04:14:00;5.25;;;1.67;;
31238;SDS011;17871;31.584;74.450;2023-05-07T04:16:29;7.72;;;1.73;;
31238;SDS011;17871;31.584;74.450;2023-05-07T04:18:58;9.55;;;2.25;;
31238;SDS011;17871;31.584;74.450;2023-05-07T04:21:28;8.02;;;1.58;;
31238;SDS011;17871;31.584;74.450;2023-05-07T04:23:58;6.25;;;1.30;;
31238;SDS011;17871;31.584;74.450;2023-05-07T04:26:28;4.25;;;1.52;;
31238;SDS011;17871;31.584;74.450;2023-05-07T04:28:57;4.13;;;1.73;;
31238;SDS011;17871;31.584;74.450;2023-05-07T04:31:32;2.47;;;1.58;;
31238;SDS011;17871;31.584;74.450;2023-05-07T04:34:01;9.65;;;2.30;;
31238;SDS011;17871;31.584;74.450;2023-05-07T04:36:30;10.75;;;2.25;;
31238;SDS011;17871;31.584;74.450;2023-05-07T04:39:06;3.50;;;1.70;;
31238;SDS011;17871;31.584;74.450;2023-05-07T04:41:37;11.23;;;2.80;;
31238;SDS011;17871;31.584;74.450;2023-05-07T04:44:07;5.47;;;2.80;;
31238;SDS011;17871;31.584;74.450;2023-05-07T04:46:37;4.60;;;2.35;;
31238;SDS011;17871;31.584;74.450;2023-05-07T04:49:06;13.57;;;1.77;;
31238;SDS011;17871;31.584;74.450;2023-05-07T04:51:35;6.13;;;2.50;;
31238;SDS011;17871;31.584;74.450;2023-05-07T04:54:04;5.32;;;2.17;;
31238;SDS011;17871;31.584;74.450;2023-05-07T04:56:34;6.20;;;1.73;;
31238;SDS011;17871;31.584;74.450;2023-05-07T04:59:03;4.47;;;2.15;;
31238;SDS011;17871;31.584;74.450;2023-05-07T05:01:32;5.95;;;2.78;;
31238;SDS011;17871;31.584;74.450;2023-05-07T05:04:01;11.65;;;2.17;;
31238;SDS011;17871;31.584;74.450;2023-05-07T05:06:30;4.68;;;2.42;;
31238;SDS011;17871;31.584;74.450;2023-05-07T05:09:02;10.38;;;3.22;;
31238;SDS011;17871;31.584;74.450;2023-05-07T05:11:34;6.70;;;2.38;;
31238;SDS011;17871;31.584;74.450;2023-05-07T05:14:03;5.13;;;2.28;;
31238;SDS011;17871;31.584;74.450;2023-05-07T05:16:32;9.93;;;2.55;;
31238;SDS011;17871;31.584;74.450;2023-05-07T05:19:02;10.88;;;2.55;;
31238;SDS011;17871;31.584;74.450;2023-05-07T05:21:34;6.65;;;2.40;;
31238;SDS011;17871;31.584;74.450;2023-05-07T05:24:07;9.32;;;2.60;;
31238;SDS011;17871;31.584;74.450;2023-05-07T05:26:37;10.60;;;2.67;;
31238;SDS011;17871;31.584;74.450;2023-05-07T05:29:07;9.75;;;2.55;;
31238;SDS011;17871;31.584;74.450;2023-05-07T05:31:39;5.70;;;2.22;;
31238;SDS011;17871;31.584;74.450;2023-05-07T05:34:10;6.45;;;2.58;;
31238;SDS011;17871;31.584;74.450;2023-05-07T05:36:40;7.90;;;2.60;;
31238;SDS011;17871;31.584;74.450;2023-05-07T05:39:09;9.88;;;2.92;;
31238;SDS011;17871;31.584;74.450;2023-05-07T05:41:38;9.10;;;2.67;;
31238;SDS011;17871;31.584;74.450;2023-05-07T05:44:07;5.97;;;1.83;;
31238;SDS011;17871;31.584;74.450;2023-05-07T05:46:37;5.95;;;1.85;;
31238;SDS011;17871;31.584;74.450;2023-05-07T05:49:06;15.48;;;2.15;;
31238;SDS011;17871;31.584;74.450;2023-05-07T05:51:36;9.45;;;1.90;;
31238;SDS011;17871;31.584;74.450;2023-05-07T05:54:05;7.15;;;2.17;;
31238;SDS011;17871;31.584;74.450;2023-05-07T05:56:34;5.18;;;2.08;;
31238;SDS011;17871;31.584;74.450;2023-05-07T05:59:06;10.63;;;2.15;;
31238;SDS011;17871;31.584;74.450;2023-05-07T06:01:36;17.20;;;3.05;;
31238;SDS011;17871;31.584;74.450;2023-05-07T06:04:06;6.88;;;2.38;;
31238;SDS011;17871;31.584;74.450;2023-05-07T06:06:35;11.50;;;2.05;;
31238;SDS011;17871;31.584;74.450;2023-05-07T06:09:04;6.53;;;2.17;;
31238;SDS011;17871;31.584;74.450;2023-05-07T06:11:40;7.85;;;2.33;;
31238;SDS011;17871;31.584;74.450;2023-05-07T06:14:11;7.00;;;1.73;;
31238;SDS011;17871;31.584;74.450;2023-05-07T06:16:40;9.20;;;2.40;;
31238;SDS011;17871;31.584;74.450;2023-05-07T06:19:10;9.90;;;2.47;;
31238;SDS011;17871;31.584;74.450;2023-05-07T06:21:40;6.95;;;2.33;;
31238;SDS011;17871;31.584;74.450;2023-05-07T06:24:10;11.35;;;3.28;;
31238;SDS011;17871;31.584;74.450;2023-05-07T06:26:39;8.05;;;2.25;;
31238;SDS011;17871;31.584;74.450;2023-05-07T06:29:08;6.90;;;2.70;;
31238;SDS011;17871;31.584;74.450;2023-05-07T06:31:39;7.43;;;2.13;;
31238;SDS011;17871;31.584;74.450;2023-05-07T06:34:12;6.60;;;2.58;;
31238;SDS011;17871;31.584;74.450;2023-05-07T06:36:45;11.23;;;2.35;;
31238;SDS011;17871;31.584;74.450;2023-05-07T06:39:23;4.20;;;2.20;;
31238;SDS011;17871;31.584;74.450;2023-05-07T06:41:53;10.13;;;4.40;;
31238;SDS011;17871;31.584;74.450;2023-05-07T06:44:30;8.60;;;2.50;;
31238;SDS011;17871;31.584;74.450;2023-05-07T06:47:06;10.38;;;2.40;;
31238;SDS011;17871;31.584;74.450;2023-05-07T06:49:38;10.07;;;2.43;;
31238;SDS011;17871;31.584;74.450;2023-05-07T06:52:07;10.20;;;2.70;;
31238;SDS011;17871;31.584;74.450;2023-05-07T06:54:36;9.38;;;2.72;;
31238;SDS011;17871;31.584;74.450;2023-05-07T06:57:06;10.60;;;2.20;;
31238;SDS011;17871;31.584;74.450;2023-05-07T06:59:36;7.28;;;2.25;;
31238;SDS011;17871;31.584;74.450;2023-05-07T07:02:05;16.42;;;3.15;;
31238;SDS011;17871;31.584;74.450;2023-05-07T07:04:35;6.90;;;2.17;;
31238;SDS011;17871;31.584;74.450;2023-05-07T07:07:09;7.53;;;2.47;;
31238;SDS011;17871;31.584;74.450;2023-05-07T07:09:40;8.98;;;2.17;;
31238;SDS011;17871;31.584;74.450;2023-05-07T07:12:10;12.52;;;2.42;;
31238;SDS011;17871;31.584;74.450;2023-05-07T07:14:40;9.43;;;1.98;;
31238;SDS011;17871;31.584;74.450;2023-05-07T07:17:09;9.40;;;2.50;;
31238;SDS011;17871;31.584;74.450;2023-05-07T07:19:38;8.13;;;2.65;;
31238;SDS011;17871;31.584;74.450;2023-05-07T07:22:08;10.82;;;2.55;;
31238;SDS011;17871;31.584;74.450;2023-05-07T07:24:38;9.88;;;2.53;;
31238;SDS011;17871;31.584;74.450;2023-05-07T07:27:09;8.45;;;2.65;;
31238;SDS011;17871;31.584;74.450;2023-05-07T07:29:39;12.10;;;2.60;;
31238;SDS011;17871;31.584;74.450;2023-05-07T07:32:07;11.15;;;2.00;;
31238;SDS011;17871;31.584;74.450;2023-05-07T07:34:37;10.18;;;2.50;;
31238;SDS011;17871;31.584;74.450;2023-05-07T07:37:06;11.20;;;2.55;;
31238;SDS011;17871;31.584;74.450;2023-05-07T07:39:37;11.85;;;2.20;;
31238;SDS011;17871;31.584;74.450;2023-05-07T07:42:07;7.57;;;2.67;;
31238;SDS011;17871;31.584;74.450;2023-05-07T07:44:37;11.15;;;2.85;;
31238;SDS011;17871;31.584;74.450;2023-05-07T07:47:09;11.00;;;2.60;;
31238;SDS011;17871;31.584;74.450;2023-05-07T07:49:39;10.48;;;3.10;;
31238;SDS011;17871;31.584;74.450;2023-05-07T07:52:09;14.68;;;2.90;;
31238;SDS011;17871;31.584;74.450;2023-05-07T07:54:39;7.82;;;2.50;;
31238;SDS011;17871;31.584;74.450;2023-05-07T07:57:08;11.00;;;2.35;;
31238;SDS011;17871;31.584;74.450;2023-05-07T07:59:37;8.82;;;2.45;;
31238;SDS011;17871;31.584;74.450;2023-05-07T08:02:08;9.95;;;2.65;;
31238;SDS011;17871;31.584;74.450;2023-05-07T08:04:38;6.55;;;2.42;;
31238;SDS011;17871;31.584;74.450;2023-05-07T08:07:08;5.82;;;2.83;;
31238;SDS011;17871;31.584;74.450;2023-05-07T08:09:41;10.18;;;3.22;;
31238;SDS011;17871;31.584;74.450;2023-05-07T08:12:11;11.80;;;3.25;;
31238;SDS011;17871;31.584;74.450;2023-05-07T08:14:41;5.53;;;1.90;;
31238;SDS011;17871;31.584;74.450;2023-05-07T08:17:10;8.45;;;2.30;;
31238;SDS011;17871;31.584;74.450;2023-05-07T08:19:39;12.25;;;2.90;;
31238;SDS011;17871;31.584;74.450;2023-05-07T08:22:11;12.40;;;2.45;;
31238;SDS011;17871;31.584;74.450;2023-05-07T08:24:41;14.52;;;3.35;;
31238;SDS011;17871;31.584;74.450;2023-05-07T08:27:10;7.93;;;2.47;;
31238;SDS011;17871;31.584;74.450;2023-05-07T08:29:41;7.63;;;2.10;;
31238;SDS011;17871;31.584;74.450;2023-05-07T08:32:10;9.07;;;2.88;;
31238;SDS011;17871;31.584;74.450;2023-05-07T08:34:39;6.05;;;2.03;;
31238;SDS011;17871;31.584;74.450;2023-05-07T08:37:09;12.95;;;2.70;;
31238;SDS011;17871;31.584;74.450;2023-05-07T08:39:38;9.80;;;3.30;;
31238;SDS011;17871;31.584;74.450;2023-05-07T08:42:15;10.65;;;2.45;;
31238;SDS011;17871;31.584;74.450;2023-05-07T08:44:46;16.60;;;3.00;;
31238;SDS011;17871;31.584;74.450;2023-05-07T08:47:17;11.32;;;3.08;;
31238;SDS011;17871;31.584;74.450;2023-05-07T08:49:51;10.25;;;2.72;;
31238;SDS011;17871;31.584;74.450;2023-05-07T08:52:21;6.45;;;2.88;;
31238;SDS011;17871;31.584;74.450;2023-05-07T08:54:50;17.17;;;2.95;;
31238;SDS011;17871;31.584;74.450;2023-05-07T08:57:19;9.90;;;2.75;;
31238;SDS011;17871;31.584;74.450;2023-05-07T08:59:50;14.85;;;2.20;;
31238;SDS011;17871;31.584;74.450;2023-05-07T09:02:19;15.45;;;3.10;;
31238;SDS011;17871;31.584;74.450;2023-05-07T09:04:49;8.18;;;2.55;;
31238;SDS011;17871;31.584;74.450;2023-05-07T09:07:19;11.65;;;3.38;;
31238;SDS011;17871;31.584;74.450;2023-05-07T09:09:48;9.02;;;2.90;;
31238;SDS011;17871;31.584;74.450;2023-05-07T09:12:19;15.52;;;3.00;;
31238;SDS011;17871;31.584;74.450;2023-05-07T09:14:49;18.63;;;3.97;;
31238;SDS011;17871;31.584;74.450;2023-05-07T09:17:18;9.35;;;2.83;;
31238;SDS011;17871;31.584;74.450;2023-05-07T09:19:47;13.07;;;3.00;;
31238;SDS011;17871;31.584;74.450;2023-05-07T09:22:16;18.55;;;3.30;;
31238;SDS011;17871;31.584;74.450;2023-05-07T09:25:06;9.48;;;2.55;;
31238;SDS011;17871;31.584;74.450;2023-05-07T09:27:37;26.45;;;3.42;;
31238;SDS011;17871;31.584;74.450;2023-05-07T09:30:07;8.75;;;2.92;;
31238;SDS011;17871;31.584;74.450;2023-05-07T09:32:37;23.95;;;3.50;;
31238;SDS011;17871;31.584;74.450;2023-05-07T09:35:16;12.63;;;3.60;;
31238;SDS011;17871;31.584;74.450;2023-05-07T09:37:51;6.55;;;2.80;;
31238;SDS011;17871;31.584;74.450;2023-05-07T09:42:53;19.75;;;3.47;;
31238;SDS011;17871;31.584;74.450;2023-05-07T09:47:57;12.70;;;3.05;;
31238;SDS011;17871;31.584;74.450;2023-05-07T09:50:28;9.65;;;3.45;;
31238;SDS011;17871;31.584;74.450;2023-05-07T09:53:01;13.45;;;3.45;;
31238;SDS011;17871;31.584;74.450;2023-05-07T09:55:31;10.98;;;3.22;;
31238;SDS011;17871;31.584;74.450;2023-05-07T09:58:01;19.17;;;3.10;;
31238;SDS011;17871;31.584;74.450;2023-05-07T10:00:33;15.02;;;3.97;;
31238;SDS011;17871;31.584;74.450;2023-05-07T10:03:09;8.63;;;2.70;;
31238;SDS011;17871;31.584;74.450;2023-05-07T10:05:50;16.48;;;3.53;;
31238;SDS011;17871;31.584;74.450;2023-05-07T10:08:21;10.77;;;4.72;;
31238;SDS011;17871;31.584;74.450;2023-05-07T10:10:55;22.02;;;3.35;;
31238;SDS011;17871;31.584;74.450;2023-05-07T10:13:27;12.67;;;4.00;;
31238;SDS011;17871;31.584;74.450;2023-05-07T10:15:58;13.82;;;3.80;;
31238;SDS011;17871;31.584;74.450;2023-05-07T10:18:34;12.43;;;3.47;;
31238;SDS011;17871;31.584;74.450;2023-05-07T10:21:19;16.95;;;4.10;;
31238;SDS011;17871;31.584;74.450;2023-05-07T10:24:00;9.70;;;3.47;;
31238;SDS011;17871;31.584;74.450;2023-05-07T10:26:47;24.60;;;4.93;;
31238;SDS011;17871;31.584;74.450;2023-05-07T10:34:48;19.38;;;3.38;;
31238;SDS011;17871;31.584;74.450;2023-05-07T10:37:22;14.68;;;3.40;;
31238;SDS011;17871;31.584;74.450;2023-05-07T10:39:54;9.95;;;3.50;;
31238;SDS011;17871;31.584;74.450;2023-05-07T10:42:25;9.40;;;3.47;;
31238;SDS011;17871;31.584;74.450;2023-05-07T10:44:56;12.95;;;4.22;;
31238;SDS011;17871;31.584;74.450;2023-05-07T10:47:29;15.43;;;3.20;;
31238;SDS011;17871;31.584;74.450;2023-05-07T10:52:38;14.68;;;4.28;;
31238;SDS011;17871;31.584;74.450;2023-05-07T10:55:19;8.75;;;3.70;;
31238;SDS011;17871;31.584;74.450;2023-05-07T10:58:22;12.18;;;4.07;;
31238;SDS011;17871;31.584;74.450;2023-05-07T11:01:03;12.35;;;4.00;;
31238;SDS011;17871;31.584;74.450;2023-05-07T11:03:37;8.52;;;3.17;;
31238;SDS011;17871;31.584;74.450;2023-05-07T11:15:15;18.77;;;3.35;;
31238;SDS011;17871;31.584;74.450;2023-05-07T11:18:08;8.80;;;2.97;;
31238;SDS011;17871;31.584;74.450;2023-05-07T11:26:17;12.63;;;4.00;;
31238;SDS011;17871;31.584;74.450;2023-05-07T11:28:48;11.63;;;3.03;;
31238;SDS011;17871;31.584;74.450;2023-05-07T11:31:22;20.55;;;4.03;;
31238;SDS011;17871;31.584;74.450;2023-05-07T11:33:55;16.55;;;3.80;;
31238;SDS011;17871;31.584;74.450;2023-05-07T11:36:30;11.32;;;3.40;;
31238;SDS011;17871;31.584;74.450;2023-05-07T11:39:03;14.93;;;4.07;;
31238;SDS011;17871;31.584;74.450;2023-05-07T11:41:35;11.43;;;4.35;;
31238;SDS011;17871;31.584;74.450;2023-05-07T11:44:05;9.88;;;3.70;;
31238;SDS011;17871;31.584;74.450;2023-05-07T11:46:34;20.15;;;4.80;;
31238;SDS011;17871;31.584;74.450;2023-05-07T11:49:03;16.00;;;5.18;;
31238;SDS011;17871;31.584;74.450;2023-05-07T11:51:32;12.88;;;3.75;;
31238;SDS011;17871;31.584;74.450;2023-05-07T11:54:03;12.68;;;3.88;;
31238;SDS011;17871;31.584;74.450;2023-05-07T11:56:37;19.50;;;4.90;;
31238;SDS011;17871;31.584;74.450;2023-05-07T11:59:06;15.88;;;3.83;;
31238;SDS011;17871;31.584;74.450;2023-05-07T12:01:35;19.45;;;3.78;;
31238;SDS011;17871;31.584;74.450;2023-05-07T12:04:05;15.10;;;3.80;;
31238;SDS011;17871;31.584;74.450;2023-05-07T12:06:35;12.88;;;3.67;;
31238;SDS011;17871;31.584;74.450;2023-05-07T12:09:06;14.85;;;4.40;;
31238;SDS011;17871;31.584;74.450;2023-05-07T12:11:39;9.93;;;4.05;;
31238;SDS011;17871;31.584;74.450;2023-05-07T12:14:08;27.92;;;7.60;;
31238;SDS011;17871;31.584;74.450;2023-05-07T12:16:39;27.10;;;7.25;;
31238;SDS011;17871;31.584;74.450;2023-05-07T12:19:09;29.58;;;11.88;;
31238;SDS011;17871;31.584;74.450;2023-05-07T12:21:42;31.02;;;11.23;;
31238;SDS011;17871;31.584;74.450;2023-05-07T12:24:11;34.10;;;10.90;;
31238;SDS011;17871;31.584;74.450;2023-05-07T12:26:43;21.83;;;10.15;;
31238;SDS011;17871;31.584;74.450;2023-05-07T12:29:12;36.22;;;10.55;;
31238;SDS011;17871;31.584;74.450;2023-05-07T12:31:42;24.10;;;9.10;;
31238;SDS011;17871;31.584;74.450;2023-05-07T12:34:12;30.73;;;8.20;;
31238;SDS011;17871;31.584;74.450;2023-05-07T12:36:41;22.05;;;9.80;;
31238;SDS011;17871;31.584;74.450;2023-05-07T12:39:10;24.25;;;7.70;;
31238;SDS011;17871;31.584;74.450;2023-05-07T12:42:00;22.92;;;8.15;;
31238;SDS011;17871;31.584;74.450;2023-05-07T12:44:29;21.05;;;8.40;;
31238;SDS011;17871;31.584;74.450;2023-05-07T12:47:02;29.15;;;10.35;;
31238;SDS011;17871;31.584;74.450;2023-05-07T12:49:31;30.08;;;10.48;;
31238;SDS011;17871;31.584;74.450;2023-05-07T12:52:06;29.85;;;12.73;;
31238;SDS011;17871;31.584;74.450;2023-05-07T12:54:37;47.72;;;14.90;;
31238;SDS011;17871;31.584;74.450;2023-05-07T12:57:07;45.90;;;13.95;;
31238;SDS011;17871;31.584;74.450;2023-05-07T12:59:38;39.78;;;15.38;;
31238;SDS011;17871;31.584;74.450;2023-05-07T13:02:09;58.03;;;21.40;;
31238;SDS011;17871;31.584;74.450;2023-05-07T13:04:39;68.22;;;32.40;;
31238;SDS011;17871;31.584;74.450;2023-05-07T13:07:09;60.67;;;27.42;;
31238;SDS011;17871;31.584;74.450;2023-05-07T13:09:38;37.83;;;13.65;;
31238;SDS011;17871;31.584;74.450;2023-05-07T13:12:07;42.13;;;14.43;;
31238;SDS011;17871;31.584;74.450;2023-05-07T13:14:36;42.00;;;13.60;;
31238;SDS011;17871;31.584;74.450;2023-05-07T13:17:05;44.08;;;17.10;;
31238;SDS011;17871;31.584;74.450;2023-05-07T13:19:34;30.95;;;13.65;;
31238;SDS011;17871;31.584;74.450;2023-05-07T13:22:05;40.13;;;12.45;;
31238;SDS011;17871;31.584;74.450;2023-05-07T13:24:34;30.25;;;12.02;;
31238;SDS011;17871;31.584;74.450;2023-05-07T13:27:03;30.33;;;11.48;;
31238;SDS011;17871;31.584;74.450;2023-05-07T13:29:32;42.90;;;12.57;;
31238;SDS011;17871;31.584;74.450;2023-05-07T13:32:01;34.80;;;11.00;;
31238;SDS011;17871;31.584;74.450;2023-05-07T13:34:31;34.00;;;10.20;;
31238;SDS011;17871;31.584;74.450;2023-05-07T13:37:00;24.92;;;8.20;;
31238;SDS011;17871;31.584;74.450;2023-05-07T13:39:29;29.17;;;9.10;;
31238;SDS011;17871;31.584;74.450;2023-05-07T13:41:58;40.88;;;9.63;;
31238;SDS011;17871;31.584;74.450;2023-05-07T13:44:28;27.40;;;9.45;;
31238;SDS011;17871;31.584;74.450;2023-05-07T13:46:57;29.98;;;10.93;;
31238;SDS011;17871;31.584;74.450;2023-05-07T13:49:26;36.47;;;10.52;;
31238;SDS011;17871;31.584;74.450;2023-05-07T13:51:55;36.22;;;12.20;;
31238;SDS011;17871;31.584;74.450;2023-05-07T13:54:24;46.28;;;11.70;;
31238;SDS011;17871;31.584;74.450;2023-05-07T13:56:53;39.00;;;12.73;;
31238;SDS011;17871;31.584;74.450;2023-05-07T13:59:23;40.85;;;13.52;;
31238;SDS011;17871;31.584;74.450;2023-05-07T14:01:51;43.30;;;15.75;;
31238;SDS011;17871;31.584;74.450;2023-05-07T14:04:20;37.35;;;14.38;;
31238;SDS011;17871;31.584;74.450;2023-05-07T14:06:49;36.58;;;10.40;;
31238;SDS011;17871;31.584;74.450;2023-05-07T14:09:18;27.83;;;9.80;;
31238;SDS011;17871;31.584;74.450;2023-05-07T14:11:47;30.27;;;9.55;;
31238;SDS011;17871;31.584;74.450;2023-05-07T14:14:19;44.43;;;10.27;;
31238;SDS011;17871;31.584;74.450;2023-05-07T14:16:48;42.15;;;9.10;;
31238;SDS011;17871;31.584;74.450;2023-05-07T14:22:17;32.63;;;7.80;;
31238;SDS011;17871;31.584;74.450;2023-05-07T14:24:46;24.77;;;7.72;;
31238;SDS011;17871;31.584;74.450;2023-05-07T14:27:32;23.92;;;7.60;;
31238;SDS011;17871;31.584;74.450;2023-05-07T14:30:01;20.83;;;8.20;;
31238;SDS011;17871;31.584;74.450;2023-05-07T14:32:30;23.83;;;8.95;;
31238;SDS011;17871;31.584;74.450;2023-05-07T14:35:00;24.08;;;9.52;;
31238;SDS011;17871;31.584;74.450;2023-05-07T14:37:29;44.50;;;13.60;;
31238;SDS011;17871;31.584;74.450;2023-05-07T14:39:58;49.25;;;15.93;;
31238;SDS011;17871;31.584;74.450;2023-05-07T14:42:27;55.90;;;15.30;;
31238;SDS011;17871;31.584;74.450;2023-05-07T14:44:56;37.28;;;13.43;;
31238;SDS011;17871;31.584;74.450;2023-05-07T14:47:25;51.30;;;12.50;;
31238;SDS011;17871;31.584;74.450;2023-05-07T14:49:54;29.65;;;10.00;;
31238;SDS011;17871;31.584;74.450;2023-05-07T14:52:23;24.17;;;8.77;;
31238;SDS011;17871;31.584;74.450;2023-05-07T14:54:52;22.27;;;9.50;;
31238;SDS011;17871;31.584;74.450;2023-05-07T14:57:21;29.67;;;9.88;;
31238;SDS011;17871;31.584;74.450;2023-05-07T14:59:50;28.20;;;9.55;;
31238;SDS011;17871;31.584;74.450;2023-05-07T15:02:19;27.48;;;9.90;;
31238;SDS011;17871;31.584;74.450;2023-05-07T15:04:48;31.88;;;9.95;;
31238;SDS011;17871;31.584;74.450;2023-05-07T15:07:18;25.25;;;8.85;;
31238;SDS011;17871;31.584;74.450;2023-05-07T15:09:46;25.58;;;8.77;;
31238;SDS011;17871;31.584;74.450;2023-05-07T15:12:15;21.05;;;8.80;;
31238;SDS011;17871;31.584;74.450;2023-05-07T15:14:44;29.05;;;9.27;;
31238;SDS011;17871;31.584;74.450;2023-05-07T15:17:13;22.60;;;7.82;;